Terminal Aerodrome Forecast
Issued by NWS Pocatello, ID

Home | Current Version | Previous Version | Text Only | Print | Product List | Glossary On
Versions: 1 2 3 4 5 6 7 8 9 10 11 12 13 14 15
000
FTUS45 KPIH 310520
TAFPIH
TAF
KPIH 310520Z 3106/0106 19008KT P6SM SKC
     FM311800 25011KT P6SM FEW180
     FM010300 17008KT P6SM FEW140=

USA.gov is the U.S. government's official web portal to all federal, state and local government web resources and services.